createdAt,value
2023-05-12T00:01:57.471Z,100436.66
2023-05-12T00:04:26.250Z,100439.44
2023-05-12T00:06:54.966Z,100440.44
2023-05-12T00:09:23.439Z,100435.25
2023-05-12T00:11:52.702Z,100445.63
2023-05-12T00:14:21.130Z,100435.94
2023-05-12T00:16:52.252Z,100439.44
2023-05-12T00:19:21.187Z,100435.94
2023-05-12T00:21:49.797Z,100422.94
2023-05-12T00:24:18.188Z,100436.94
2023-05-12T00:26:46.894Z,100436.94
2023-05-12T00:29:15.404Z,100430.63
2023-05-12T00:31:44.107Z,100434.13
2023-05-12T00:34:12.520Z,100429.91
2023-05-12T00:36:41.232Z,100428.97
2023-05-12T00:39:10.396Z,100421.94
2023-05-12T00:41:39.103Z,100422.94
2023-05-12T00:44:07.575Z,100421.94
2023-05-12T00:46:37.208Z,100417.03
2023-05-12T00:49:05.554Z,100422.94
2023-05-12T00:51:34.313Z,100420.97
2023-05-12T00:54:02.884Z,100417.59
2023-05-12T00:56:31.583Z,100424.59
2023-05-12T00:58:59.981Z,100412.13
2023-05-12T01:01:30.660Z,100418.44
2023-05-12T01:03:59.307Z,100409.06
2023-05-12T01:07:05.926Z,100416.91
2023-05-12T01:09:34.685Z,100411.41
2023-05-12T01:12:04.414Z,100416.75
2023-05-12T01:14:34.530Z,100414.25
2023-05-12T01:17:06.252Z,100414.25
2023-05-12T01:19:42.182Z,100418.56
2023-05-12T01:22:13.117Z,100410.44
2023-05-12T01:24:57.610Z,100411.59
2023-05-12T01:27:28.618Z,100416.75
2023-05-12T01:30:00.890Z,100420.41
2023-05-12T01:32:31.101Z,100414.25
2023-05-12T01:35:00.435Z,100415.91
2023-05-12T01:37:31.156Z,100419.41
2023-05-12T01:40:00.461Z,100414.50
2023-05-12T01:42:29.254Z,100417.75
2023-05-12T01:44:57.715Z,100422.22
2023-05-12T01:47:27.722Z,100420.66
2023-05-12T01:50:13.818Z,100425.16
2023-05-12T01:52:44.777Z,100430.47
2023-05-12T01:55:16.455Z,100428.66
2023-05-12T01:57:51.759Z,100430.47
2023-05-12T02:00:21.914Z,100431.59
2023-05-12T02:02:53.527Z,100431.31
2023-05-12T02:05:22.426Z,100422.75
2023-05-12T02:07:52.398Z,100426.97
2023-05-12T02:10:21.184Z,100425.16
2023-05-12T02:12:50.230Z,100428.78
2023-05-12T02:15:19.089Z,100423.63
2023-05-12T02:17:50.493Z,100417.44
2023-05-12T02:20:20.160Z,100414.50
2023-05-12T02:22:49.014Z,100412.28
2023-05-12T02:25:17.472Z,100416.59
2023-05-12T02:27:46.901Z,100419.13
2023-05-12T02:30:15.989Z,100417.31
2023-05-12T02:32:44.842Z,100425.97
2023-05-12T02:35:14.270Z,100421.91
2023-05-12T02:37:44.209Z,100420.25
2023-05-12T02:40:13.083Z,100421.09
2023-05-12T02:42:43.853Z,100427.25
2023-05-12T02:45:12.816Z,100421.22
2023-05-12T02:47:41.709Z,100419.25
2023-05-12T02:50:11.352Z,100425.41
2023-05-12T02:52:40.267Z,100423.75
2023-05-12T02:55:09.573Z,100422.75
2023-05-12T02:57:38.326Z,100412.66
2023-05-12T03:00:07.694Z,100424.72
2023-05-12T03:02:39.961Z,100425.72
2023-05-12T03:05:11.866Z,100412.22
2023-05-12T03:07:40.621Z,100424.72
2023-05-12T03:10:10.905Z,100423.03
2023-05-12T03:12:39.797Z,100417.72
2023-05-12T03:15:09.217Z,100415.06
2023-05-12T03:17:38.120Z,100411.56
2023-05-12T03:20:07.675Z,100413.38
2023-05-12T03:22:38.338Z,100412.66
2023-05-12T03:25:08.682Z,100405.50
2023-05-12T03:27:37.898Z,100414.22
2023-05-12T03:30:07.233Z,100411.69
2023-05-12T03:32:41.696Z,100408.91
2023-05-12T03:35:12.011Z,100401.88
2023-05-12T03:37:41.148Z,100406.09
2023-05-12T03:40:11.404Z,100412.66
2023-05-12T03:42:40.057Z,100409.03
2023-05-12T03:45:11.431Z,100409.88
2023-05-12T03:47:40.990Z,100409.03
2023-05-12T03:50:10.857Z,100407.34
2023-05-12T03:52:41.709Z,100411.00
2023-05-12T03:55:10.718Z,100396.25
2023-05-12T03:57:39.423Z,100403.00
2023-05-12T04:00:08.595Z,100407.34
2023-05-12T04:02:46.694Z,100398.53
2023-05-12T04:05:16.421Z,100405.69
2023-05-12T08:09:00.959Z,100527.56
2023-05-12T08:11:29.616Z,100516.19
2023-05-12T08:13:58.017Z,100523.91
2023-05-12T08:16:26.868Z,100516.91
2023-05-12T08:18:55.309Z,100526.56
2023-05-12T08:21:24.216Z,100523.06
2023-05-12T08:23:52.506Z,100515.84
2023-05-12T08:26:21.614Z,100520.81
2023-05-12T08:28:49.957Z,100530.78
2023-05-12T08:31:18.790Z,100537.06
2023-05-12T08:33:51.738Z,100546.19
2023-05-12T08:36:22.830Z,100546.06
2023-05-12T08:38:51.184Z,100544.34
2023-05-12T08:41:23.751Z,100546.47
2023-05-12T08:43:52.802Z,100543.81
2023-05-12T08:46:21.794Z,100551.22
2023-05-12T08:48:51.354Z,100549.41
2023-05-12T08:51:20.063Z,100546.19
2023-05-12T08:53:48.515Z,100546.47
2023-05-12T08:58:51.872Z,100526.84
2023-05-12T09:01:21.238Z,100543.69
2023-05-12T09:03:51.421Z,100545.38
2023-05-12T09:06:20.605Z,100549.00
2023-05-12T09:08:49.024Z,100556.88
2023-05-12T09:11:17.998Z,100549.72
2023-05-12T09:14:09.264Z,100545.75
2023-05-12T09:16:44.571Z,100554.06
2023-05-12T09:19:12.993Z,100559.66
2023-05-12T09:21:42.136Z,100550.00
2023-05-12T09:24:10.455Z,100553.38
2023-05-12T09:27:05.785Z,100552.81
2023-05-12T09:29:37.520Z,100555.47
2023-05-12T09:32:11.147Z,100544.84
2023-05-12T09:34:41.686Z,100548.19
2023-05-12T09:37:10.554Z,100549.03
2023-05-12T09:39:38.936Z,100550.88
2023-05-12T09:42:13.074Z,100539.50
2023-05-12T09:44:42.232Z,100540.75
2023-05-12T09:47:11.231Z,100542.44
2023-05-12T09:49:42.286Z,100552.81
2023-05-12T09:52:10.960Z,100550.16
2023-05-12T09:54:39.476Z,100548.19
2023-05-12T09:57:08.986Z,100539.22
2023-05-12T09:59:39.680Z,100541.63
2023-05-12T10:02:09.903Z,100537.25
2023-05-12T10:04:53.700Z,100544.69
2023-05-12T10:07:24.267Z,100533.63
2023-05-12T10:09:53.045Z,100539.25
2023-05-12T10:12:21.724Z,100537.44
2023-05-12T10:14:50.494Z,100537.56
2023-05-12T10:17:20.854Z,100540.38
2023-05-12T10:19:49.378Z,100537.00
2023-05-12T10:22:18.052Z,100532.81
2023-05-12T10:24:46.512Z,100548.63
2023-05-12T10:27:16.118Z,100538.28
2023-05-12T10:29:44.624Z,100553.00
2023-05-12T10:32:13.334Z,100556.94
2023-05-12T10:34:42.269Z,100552.44
2023-05-12T10:37:11.611Z,100562.25
2023-05-12T10:39:51.692Z,100560.16
2023-05-12T10:42:26.275Z,100558.47
2023-05-12T10:44:56.699Z,100565.88
2023-05-12T10:47:29.594Z,100576.66
2023-05-12T10:50:01.202Z,100562.94
2023-05-12T10:52:30.002Z,100568.38
2023-05-12T10:55:03.502Z,100573.44
2023-05-12T10:57:33.514Z,100566.72
2023-05-12T11:00:03.870Z,100569.50
2023-05-12T11:02:36.152Z,100565.00
2023-05-12T11:05:13.038Z,100570.47
2023-05-12T11:07:50.083Z,100572.03
2023-05-12T11:10:19.594Z,100569.88
2023-05-12T11:12:48.854Z,100574.13
2023-05-12T11:15:18.081Z,100571.47
2023-05-12T11:17:49.336Z,100569.75
2023-05-12T11:20:29.471Z,100571.47
2023-05-12T11:22:59.806Z,100576.47
2023-05-12T11:25:28.565Z,100566.97
2023-05-12T11:27:57.657Z,100566.53
2023-05-12T11:30:26.130Z,100565.72
2023-05-12T11:33:02.839Z,100563.06
2023-05-12T11:35:32.838Z,100564.47
2023-05-12T11:38:03.308Z,100571.19
2023-05-12T11:40:31.757Z,100566.00
2023-05-12T11:43:01.820Z,100566.75
2023-05-12T11:45:30.831Z,100544.41
2023-05-12T11:48:11.916Z,100565.47
2023-05-12T11:50:43.053Z,100562.81
2023-05-12T11:53:15.212Z,100562.81
2023-05-12T11:55:56.991Z,100553.28
2023-05-12T11:58:29.506Z,100552.31
2023-05-12T12:01:08.387Z,100556.94
2023-05-12T12:03:49.117Z,100558.03
2023-05-12T12:06:18.029Z,100553.28
2023-05-12T12:09:02.531Z,100553.72
2023-05-12T12:11:31.542Z,100559.06
2023-05-12T12:14:01.032Z,100556.38
2023-05-12T12:16:31.679Z,100557.09
2023-05-12T12:19:00.427Z,100564.13
2023-05-12T12:21:28.784Z,100558.78
2023-05-12T12:23:57.799Z,100561.44
2023-05-12T12:26:26.209Z,100553.59
2023-05-12T12:28:55.030Z,100568.44
2023-05-12T12:31:23.285Z,100567.47
2023-05-12T12:33:51.886Z,100557.78
2023-05-12T12:36:20.230Z,100555.13
2023-05-12T12:38:49.031Z,100545.31
2023-05-12T12:41:17.226Z,100554.16
2023-05-12T12:43:45.820Z,100558.50
2023-05-12T12:46:14.190Z,100556.13
2023-05-12T12:48:43.263Z,100554.16
2023-05-12T12:51:11.886Z,100563.41
2023-05-12T12:53:43.540Z,100560.72
2023-05-12T12:56:12.295Z,100554.69
2023-05-12T12:58:41.530Z,100558.06
2023-05-12T13:01:09.776Z,100557.22
2023-05-12T13:03:38.655Z,100559.19
2023-05-12T13:06:07.195Z,100571.56
2023-05-12T13:08:35.914Z,100558.22
2023-05-12T13:11:04.222Z,100559.78
2023-05-12T13:13:32.853Z,100560.72
2023-05-12T13:16:01.134Z,100556.53
2023-05-12T13:18:29.828Z,100558.38
2023-05-12T13:20:58.543Z,100558.22
2023-05-12T13:23:27.106Z,100561.47
2023-05-12T13:25:55.393Z,100560.59
2023-05-12T13:28:24.135Z,100567.75
2023-05-12T13:30:52.998Z,100570.56
2023-05-12T13:33:21.965Z,100561.72
2023-05-12T13:35:50.267Z,100570.69
2023-05-12T13:38:20.030Z,100565.34
2023-05-12T13:40:48.351Z,100565.34
2023-05-12T13:43:16.942Z,100562.88
2023-05-12T13:45:45.407Z,100569.03
2023-05-12T13:48:14.165Z,100568.59
2023-05-12T13:50:42.670Z,100569.03
2023-05-12T13:53:12.904Z,100569.47
2023-05-12T13:55:41.592Z,100562.00
2023-05-12T13:58:10.206Z,100555.28
2023-05-12T14:00:38.610Z,100555.97
2023-05-12T14:03:08.142Z,100560.91
2023-05-12T14:05:36.517Z,100554.72
2023-05-12T14:08:05.403Z,100557.69
2023-05-12T14:10:35.552Z,100563.84
2023-05-12T14:13:04.592Z,100570.72
2023-05-12T14:15:47.179Z,100574.38
2023-05-12T14:18:17.649Z,100567.06
2023-05-12T14:20:46.399Z,100573.94
2023-05-12T14:23:15.157Z,100566.25
2023-05-12T14:25:43.524Z,100574.63
2023-05-12T14:28:12.541Z,100566.81
2023-05-12T14:30:41.028Z,100572.53
2023-05-12T14:33:09.712Z,100571.72
2023-05-12T14:35:38.237Z,100553.31
2023-05-12T14:38:06.828Z,100562.72
2023-05-12T14:40:35.182Z,100558.81
2023-05-12T14:43:03.754Z,100567.63
2023-05-12T14:45:32.309Z,100553.31
2023-05-12T14:48:01.152Z,100562.19
2023-05-12T14:50:29.726Z,100557.81
2023-05-12T14:52:58.683Z,100549.81
2023-05-12T14:55:28.563Z,100555.41
2023-05-12T14:57:57.465Z,100549.38
2023-05-12T15:00:26.113Z,100547.16
2023-05-12T15:02:54.768Z,100551.78
2023-05-12T15:05:32.454Z,100551.22
2023-05-12T15:08:10.766Z,100558.09
2023-05-12T15:10:39.077Z,100545.50
2023-05-12T15:13:08.114Z,100541.84
2023-05-12T15:15:39.492Z,100547.03
2023-05-12T15:18:08.487Z,100542.53
2023-05-12T15:20:37.787Z,100539.88
2023-05-12T15:23:06.481Z,100540.69
2023-05-12T15:25:34.917Z,100543.53
2023-05-12T15:28:03.744Z,100547.72
2023-05-12T15:30:32.151Z,100566.50
2023-05-12T15:33:04.371Z,100552.22
2023-05-12T15:35:33.282Z,100549.00
2023-05-12T15:38:02.038Z,100548.00
2023-05-12T15:40:31.311Z,100558.25
2023-05-12T15:43:00.109Z,100545.50
2023-05-12T15:45:28.510Z,100559.91
2023-05-12T15:47:58.276Z,100567.91
2023-05-12T15:50:26.664Z,100547.72
2023-05-12T15:52:57.411Z,100556.69
2023-05-12T15:55:25.787Z,100563.41
2023-05-12T15:57:54.445Z,100570.56
2023-05-12T16:00:22.976Z,100564.13
2023-05-12T16:02:51.629Z,100554.31
2023-05-12T16:05:20.485Z,100562.59
2023-05-12T16:07:49.322Z,100557.00
2023-05-12T16:10:17.731Z,100558.78
2023-05-12T16:12:46.450Z,100557.25
2023-05-12T16:15:14.854Z,100562.31
2023-05-12T16:17:43.617Z,100564.00
2023-05-12T16:20:12.889Z,100567.09
2023-05-12T16:22:41.502Z,100555.03
2023-05-12T16:25:09.921Z,100559.78
2023-05-12T16:27:39.019Z,100554.94
2023-05-12T16:30:08.658Z,100558.44
2023-05-12T16:32:37.287Z,100565.72
2023-05-12T16:35:07.012Z,100567.56
2023-05-12T16:37:35.602Z,100557.97
2023-05-12T16:40:04.471Z,100567.38
2023-05-12T16:42:33.324Z,100566.69
2023-05-12T16:45:01.733Z,100568.94
2023-05-12T16:47:30.521Z,100563.63
2023-05-12T16:50:00.037Z,100566.00
2023-05-12T16:52:28.926Z,100567.97
2023-05-12T16:55:00.381Z,100569.66
2023-05-12T16:57:29.060Z,100569.09
2023-05-12T16:59:57.442Z,100572.44
2023-05-12T17:02:26.035Z,100574.28
2023-05-12T17:04:54.397Z,100581.72
2023-05-12T17:07:23.522Z,100572.13
2023-05-12T17:09:51.962Z,100577.22
2023-05-12T17:12:20.927Z,100581.72
2023-05-12T17:14:59.436Z,100583.78
2023-05-12T17:17:35.893Z,100587.28
2023-05-12T17:20:06.310Z,100595.97
2023-05-12T17:22:37.394Z,100596.25
2023-05-12T17:25:06.290Z,100613.50
2023-05-12T17:27:34.920Z,100614.47
2023-05-12T17:30:04.692Z,100622.47
2023-05-12T17:32:33.414Z,100614.31
2023-05-12T17:35:01.685Z,100620.50
2023-05-12T17:37:30.715Z,100615.97
2023-05-12T17:39:59.664Z,100627.06
2023-05-12T17:42:31.494Z,100630.38
2023-05-12T17:45:00.021Z,100630.66
2023-05-12T17:47:28.758Z,100638.63
2023-05-12T17:49:57.156Z,100639.84
2023-05-12T17:52:26.141Z,100642.47
2023-05-12T17:54:57.469Z,100638.97
2023-05-12T17:57:26.133Z,100640.94
2023-05-12T17:59:54.403Z,100647.38
2023-05-12T18:02:23.169Z,100646.25
2023-05-12T18:04:51.567Z,100646.25
2023-05-12T18:07:20.418Z,100652.69
2023-05-12T18:09:48.710Z,100656.28
2023-05-12T18:12:18.624Z,100654.31
2023-05-12T18:14:47.410Z,100656.28
2023-05-12T18:17:16.993Z,100663.81
2023-05-12T18:19:45.547Z,100664.41
2023-05-12T18:22:16.287Z,100666.78
2023-05-12T18:24:44.906Z,100674.47
2023-05-12T18:27:13.871Z,100677.84
2023-05-12T18:29:42.572Z,100675.31
2023-05-12T18:32:11.708Z,100679.63
2023-05-12T18:34:41.937Z,100682.22
2023-05-12T18:37:15.789Z,100683.19
2023-05-12T18:39:44.507Z,100694.38
2023-05-12T18:42:13.733Z,100696.19
2023-05-12T18:44:42.511Z,100685.09
2023-05-12T18:47:11.695Z,100698.59
2023-05-12T18:49:40.194Z,100702.06
2023-05-12T18:52:09.094Z,100699.38
2023-05-12T18:54:38.216Z,100710.44
2023-05-12T18:57:07.232Z,100713.28
2023-05-12T18:59:35.773Z,100714.16
2023-05-12T19:02:04.838Z,100711.66
2023-05-12T19:04:33.659Z,100713.09
2023-05-12T19:07:02.804Z,100715.75
2023-05-12T19:09:31.563Z,100726.03
2023-05-12T19:12:00.432Z,100728.28
2023-05-12T19:14:28.732Z,100735.03
2023-05-12T19:16:58.874Z,100736.00
2023-05-12T19:19:27.150Z,100743.13
2023-05-12T19:21:55.895Z,100744.50
2023-05-12T19:24:26.003Z,100749.84
2023-05-12T19:26:54.868Z,100751.78
2023-05-12T19:29:23.457Z,100756.28
2023-05-12T19:31:53.306Z,100766.81
2023-05-12T19:34:21.847Z,100770.59
2023-05-12T19:36:53.142Z,100766.69
2023-05-12T19:39:21.573Z,100764.97
2023-05-12T19:41:51.712Z,100774.81
2023-05-12T19:44:20.069Z,100776.47
2023-05-12T19:46:48.887Z,100773.09
2023-05-12T19:49:17.333Z,100782.78
2023-05-12T19:51:46.092Z,100780.97
2023-05-12T19:54:14.458Z,100781.81
2023-05-12T19:56:43.151Z,100780.13
2023-05-12T19:59:11.514Z,100792.47
2023-05-12T20:01:41.254Z,100797.78
2023-05-12T20:04:09.689Z,100799.47
2023-05-12T20:06:38.364Z,100790.19
2023-05-12T20:09:07.314Z,100789.94
2023-05-12T20:11:36.117Z,100804.81
2023-05-12T20:14:04.477Z,100809.19
2023-05-12T20:16:33.373Z,100804.81
2023-05-12T20:19:02.991Z,100810.97
2023-05-12T20:21:32.295Z,100805.78
2023-05-12T20:24:00.769Z,100813.50
2023-05-12T20:26:30.770Z,100808.19
2023-05-12T20:29:00.479Z,100809.03
2023-05-12T20:31:29.329Z,100803.09
2023-05-12T20:33:58.045Z,100809.03
2023-05-12T20:36:26.788Z,100816.06
2023-05-12T20:38:55.123Z,100817.00
2023-05-12T20:41:23.926Z,100815.94
2023-05-12T20:43:52.309Z,100814.22
2023-05-12T20:46:21.207Z,100819.44
2023-05-12T20:48:49.549Z,100817.06
2023-05-12T20:51:18.167Z,100818.78
2023-05-12T20:53:46.507Z,100815.41
2023-05-12T20:56:15.357Z,100820.97
2023-05-12T20:58:43.882Z,100820.25
2023-05-12T21:01:12.699Z,100824.88
2023-05-12T21:03:42.339Z,100821.63
2023-05-12T21:06:12.437Z,100819.25
2023-05-12T21:08:41.348Z,100809.56
2023-05-12T21:11:17.719Z,100808.13
2023-05-12T21:13:47.772Z,100816.00
2023-05-12T21:16:17.063Z,100814.28
2023-05-12T21:18:45.863Z,100812.63
2023-05-12T21:21:14.767Z,100813.88
2023-05-12T21:23:43.396Z,100810.09
2023-05-12T21:26:12.774Z,100815.28
2023-05-12T21:28:41.392Z,100817.25
2023-05-12T21:31:10.194Z,100811.03
2023-05-12T21:33:38.845Z,100815.53
2023-05-12T21:36:08.090Z,100817.38
2023-05-12T21:38:36.627Z,100819.19
2023-05-12T21:41:05.945Z,100818.19
2023-05-12T21:43:34.613Z,100823.53
2023-05-12T21:46:04.832Z,100831.63
2023-05-12T21:48:34.767Z,100831.78
2023-05-12T21:51:04.141Z,100836.13
2023-05-12T21:53:32.501Z,100828.53
2023-05-12T21:56:01.181Z,100836.41
2023-05-12T21:58:30.404Z,100838.91
2023-05-12T22:01:00.140Z,100839.91
2023-05-12T22:03:28.596Z,100854.91
2023-05-12T22:05:57.389Z,100853.47
2023-05-12T22:08:25.989Z,100858.66
2023-05-12T22:10:54.659Z,100861.34
2023-05-12T22:13:23.002Z,100862.88
2023-05-12T22:15:51.724Z,100863.75
2023-05-12T22:18:21.357Z,100861.34
2023-05-12T22:20:50.354Z,100863.28
2023-05-12T22:23:18.759Z,100864.13
2023-05-12T22:25:47.744Z,100862.44
2023-05-12T22:28:17.021Z,100868.59
2023-05-12T22:30:45.681Z,100866.19
2023-05-12T22:33:14.036Z,100867.66
2023-05-12T22:35:43.086Z,100875.63
2023-05-12T22:38:11.423Z,100870.31
2023-05-12T22:40:40.103Z,100875.63
2023-05-12T22:43:09.721Z,100870.31
2023-05-12T22:45:38.338Z,100871.41
2023-05-12T22:48:06.675Z,100875.63
2023-05-12T22:50:35.378Z,100885.41
2023-05-12T22:53:03.625Z,100880.97
2023-05-12T22:55:32.344Z,100876.59
2023-05-12T22:58:00.720Z,100879.25
2023-05-12T23:00:29.319Z,100885.41
2023-05-12T23:02:57.750Z,100881.81
2023-05-12T23:05:26.505Z,100887.13
2023-05-12T23:07:54.918Z,100886.28
2023-05-12T23:10:24.118Z,100880.09
2023-05-12T23:12:52.596Z,100887.13
2023-05-12T23:15:21.486Z,100878.44
2023-05-12T23:17:49.895Z,100881.94
2023-05-12T23:20:19.201Z,100883.75
2023-05-12T23:22:47.742Z,100882.75
2023-05-12T23:25:16.598Z,100880.09
2023-05-12T23:27:44.984Z,100880.09
2023-05-12T23:30:13.968Z,100884.59
2023-05-12T23:32:42.683Z,100879.25
2023-05-12T23:35:11.550Z,100887.25
2023-05-12T23:37:39.888Z,100882.03
2023-05-12T23:40:09.462Z,100884.59
2023-05-12T23:42:37.849Z,100882.88
2023-05-12T23:45:07.739Z,100880.38
2023-05-12T23:47:36.401Z,100890.16
2023-05-12T23:50:05.920Z,100891.84
2023-05-12T23:52:34.198Z,100885.81
2023-05-12T23:55:02.861Z,100877.13
2023-05-12T23:57:31.221Z,100872.75
2023-05-12T23:59:59.948Z,100870.81
